Latest Coastal Weather Observations for Hobart

IDT60701

Issued at 6:32 am EDT Tuesday 7 February 2023 (issued every 10 minutes, with the page automatically refreshed every 10 minutes)

About coastal observations | Map of coastal stations | Coastal observations for TAS | Marine services | Other Formats
Station Details ID: 094029 Name: HOBART (ELLERSLIE ROAD) Lat: -42.89 Lon: 147.33 Height: 50.5 m
Data from the previous 72 hours. | See also: Recent months at Hobart
Date/Time
EDT
Wind Sea
Height
m
Swell Vis
km
Cloud Weather Temp
°C
Press
MSL
hPa
Rain since
9am
mm
Dir  Spd
kts
Gust
kts
Height
m
Period
s
Dir
07/06:30am ESE 3 4 - - - - - - - 13.3 1015.5 0.0
07/06:00am WNW 6 12 - - - - - - - 13.9 1015.2 0.0
07/05:30am NNE 7 11 - - - - - - - 13.9 1014.9 0.0
07/05:00am ESE 5 10 - - - - - - - 14.4 1014.8 0.0
07/04:30am ENE 4 6 - - - - - - - 13.6 1014.8 0.0
07/04:00am SW 4 8 - - - - - - - 13.8 1014.7 0.0
07/03:30am NNE 5 7 - - - - - - - 13.6 1014.9 0.0
07/03:00am NNE 5 8 - - - - - - - 14.1 1015.0 0.0
07/02:30am E 4 5 - - - - - - - 14.1 1014.9 0.0
07/02:00am NW 7 12 - - - - - - - 14.4 1015.0 0.0
07/01:30am WNW 7 10 - - - - - - - 14.5 1015.0 0.0
07/01:00am WNW 6 11 - - - - - - - 14.8 1015.2 0.0
07/12:30am NW 10 15 - - - - - - - 15.0 1015.1 0.0
07/12:00am NW 7 12 - - - - - - - 14.9 1015.1 0.0
 
Date/Time
EDT
Wind Sea
Height
m
Swell Vis
km
Cloud Weather Temp
°C
Press
MSL
hPa
Rain since
9am
mm
Dir  Spd
kts
Gust
kts
Height
m
Period
s
Dir
06/11:30pm W 3 6 - - - - - - - 15.3 1015.1 0.0
06/11:00pm W 4 7 - - - - - - - 15.6 1014.9 0.0
06/10:30pm W 7 11 - - - - - - - 16.1 1014.8 0.0
06/10:00pm NW 9 12 - - - - - - - 16.5 1014.7 0.0
06/09:30pm NW 13 20 - - - - - - - 16.7 1014.2 0.0
06/09:00pm WNW 13 20 - - - - - - - 17.0 1013.6 0.0
06/08:32pm WNW 15 27 - - - - - - - 17.6 1013.2 0.0
06/08:30pm WNW 14 27 - - - - - - - 17.6 1013.2 0.0
06/08:01pm WNW 15 25 - - - - - - - 18.1 1013.0 0.0
06/08:00pm WNW 14 25 - - - - - - - 18.1 1013.0 0.0
06/07:30pm WNW 15 26 - - - - - - - 18.8 1012.8 0.0
06/07:13pm WNW 15 27 - - - - - - - 19.7 1012.6 0.0
06/07:00pm WNW 14 22 - - - - - - - 20.1 1012.6 0.0
06/06:33pm NW 15 25 - - - - - - - 20.9 1012.4 0.0
06/06:30pm NW 17 25 - - - - - - - 20.7 1012.3 0.0
06/06:00pm NW 15 25 - - - - - - - 21.6 1012.1 0.0
06/05:51pm NW 15 25 - - - - - - - 21.9 1012.0 0.0
06/05:30pm NNW 19 27 - - - - - - - 21.8 1012.0 0.0
06/05:01pm NW 17 26 - - - - - - - 22.7 1011.9 0.0
06/05:00pm NW 17 26 - - - - - - - 22.7 1011.9 0.0
06/04:30pm WNW 13 20 - - - - - - - 23.6 1012.3 0.0
06/04:01pm NW 15 27 - - - - - - - 22.9 1012.4 0.0
06/04:00pm NW 15 27 - - - - - - - 22.8 1012.3 0.0
06/03:56pm WNW 10 26 - - - - - - - 22.7 1012.2 0.0
06/03:30pm SSW 8 13 - - - - - - - 21.4 1012.6 0.0
06/03:00pm SW 9 14 - - - - - - - 21.6 1012.8 0.0
06/02:30pm NW 13 24 - - - - - - - 22.3 1012.8 0.0
06/02:00pm WNW 8 18 - - - - - - - 22.0 1013.0 0.0
06/01:30pm NW 15 23 - - - - - - - 21.6 1012.9 0.0
06/01:00pm WNW 10 17 - - - - - - - 22.0 1013.1 0.0
06/12:30pm NW 12 19 - - - - - - - 21.2 1013.3 0.0
06/12:00pm NW 15 26 - - - - - - - 21.2 1013.3 0.0
06/11:55am NW 15 26 - - - - - - - 20.8 1013.3 0.0
06/11:30am WNW 11 21 - - - - - - - 21.6 1013.6 0.0
06/11:00am NW 13 21 - - - - - - - 20.8 1013.5 0.0
06/10:30am NW 13 21 - - - - - - - 21.0 1013.3 0.0
06/10:00am NW 12 19 - - - - - - - 20.4 1013.4 0.0
06/09:30am NW 12 16 - - - - - - - 19.1 1013.5 0.0
06/09:00am NNW 11 17 - - - - - - - 19.1 1013.4 0.0
06/08:30am NNW 13 19 - - - - - - - 17.7 1013.3 0.0
06/08:00am NW 14 19 - - - - - - - 17.1 1013.0 0.0
06/07:30am WNW 10 16 - - - - - - - 16.4 1013.3 0.0
06/07:00am NW 12 18 - - - - - - - 15.1 1012.8 0.0
06/06:30am NW 15 25 - - - - - - - 15.0 1012.3 0.0
06/06:19am NW 16 26 - - - - - - - 14.9 1011.9 0.0
06/06:00am NW 17 24 - - - - - - - 15.2 1011.7 0.0
06/05:30am NW 12 18 - - - - - - - 15.0 1012.0 0.0
06/05:00am WNW 6 12 - - - - - - - 13.8 1012.3 0.0
06/04:30am SW 4 6 - - - - - - - 13.2 1012.6 0.0
06/04:00am WSW 7 10 - - - - - - - 13.0 1012.5 0.0
06/03:30am WSW 7 11 - - - - - - - 12.9 1012.5 0.0
06/03:00am WSW 6 7 - - - - - - - 13.0 1012.8 0.0
06/02:30am W 5 7 - - - - - - - 13.1 1012.6 0.0
06/02:00am WSW 6 7 - - - - - - - 12.9 1012.8 0.0
06/01:30am WSW 4 7 - - - - - - - 13.6 1012.9 0.0
06/01:00am NNW 3 5 - - - - - - - 14.5 1012.9 0.0
06/12:30am SW 5 8 - - - - - - - 14.3 1013.1 0.0
06/12:00am NW 5 8 - - - - - - - 15.1 1013.0 0.0
 
Date/Time
EDT
Wind Sea
Height
m
Swell Vis
km
Cloud Weather Temp
°C
Press
MSL
hPa
Rain since
9am
mm
Dir  Spd
kts
Gust
kts
Height
m
Period
s
Dir
05/11:30pm NW 7 10 - - - - - - - 15.7 1013.0 0.0
05/11:00pm ENE 5 8 - - - - - - - 15.9 1013.2 0.0
05/10:30pm WNW 5 7 - - - - - - - 15.5 1013.2 0.0
05/10:00pm WSW 6 8 - - - - - - - 15.8 1013.4 0.0
05/09:30pm SSW 4 5 - - - - - - - 16.5 1013.1 0.0
05/09:00pm SE 7 11 - - - - - - - 17.6 1012.6 0.0
05/08:30pm SE 7 10 - - - - - - - 17.8 1012.3 0.0
05/08:00pm SE 7 10 - - - - - - - 18.1 1012.0 0.0
05/07:30pm ESE 9 13 - - - - - - - 18.2 1011.6 0.0
05/07:00pm ESE 10 14 - - - - - - - 18.7 1011.5 0.0
05/06:30pm ESE 11 14 - - - - - - - 19.0 1011.3 0.0
05/06:00pm ESE 10 14 - - - - - - - 19.3 1011.1 0.0
05/05:30pm ESE 10 14 - - - - - - - 20.0 1011.0 0.0
05/05:00pm ESE 10 14 - - - - - - - 19.6 1011.1 0.0
05/04:30pm ESE 11 15 - - - - - - - 20.4 1011.0 0.0
05/04:00pm ESE 13 19 - - - - - - - 20.3 1011.2 0.0
05/03:30pm ESE 16 21 - - - - - - - 20.1 1011.1 0.0
05/03:00pm E 13 21 - - - - - - - 20.5 1010.9 0.0
05/02:30pm ESE 7 10 - - - - - - - 23.9 1010.8 0.0
05/02:00pm ESE 8 10 - - - - - - - 22.9 1010.9 0.0
05/01:30pm ENE 8 11 - - - - - - - 22.7 1011.0 0.0
05/01:00pm ENE 7 9 - - - - - - - 22.5 1011.3 0.0
05/12:30pm ENE 7 9 - - - - - - - 21.8 1011.2 0.0
05/12:00pm E 7 9 - - - - - - - 20.4 1011.2 0.0
05/11:30am E 6 9 - - - - - - - 20.1 1011.1 0.0
05/11:00am ESE 7 9 - - - - - - - 19.7 1011.1 0.0
05/10:30am ENE 8 11 - - - - - - - 20.1 1010.8 0.0
05/10:00am ENE 10 14 - - - - - - - 18.3 1010.7 0.0
05/09:30am ENE 6 12 - - - - - - - 18.1 1010.4 0.0
05/09:00am NE 6 8 - - - - - - - 17.7 1010.4 1.0
05/08:30am NE 6 11 - - - - - - - 16.9 1010.1 1.0
05/08:00am NE 7 11 - - - - - - - 16.0 1009.8 1.0
05/07:30am NNE 5 7 - - - - - - - 15.2 1009.6 1.0
05/07:00am NNE 7 12 - - - - - - - 14.1 1009.2 1.0
05/06:30am SSE 5 9 - - - - - - - 13.2 1008.7 1.0
05/06:00am E 6 9 - - - - - - - 14.0 1008.3 1.0
05/05:30am SW 14 23 - - - - - - - 13.8 1007.3 1.0
05/05:00am WNW 5 11 - - - - - - - 14.0 1007.4 1.0
05/04:30am SW 14 24 - - - - - - - 13.8 1006.7 1.0
05/04:00am SW 10 18 - - - - - - - 13.8 1006.5 1.0
05/03:30am SW 10 19 - - - - - - - 13.9 1006.3 1.0
05/03:00am WSW 12 20 - - - - - - - 13.9 1006.2 1.0
05/02:30am SW 10 17 - - - - - - - 14.2 1005.9 1.0
05/02:00am SW 13 21 - - - - - - - 14.2 1005.5 1.0
05/01:30am SW 12 20 - - - - - - - 14.1 1004.9 1.0
05/01:00am WSW 12 26 - - - - - - - 14.4 1004.6 1.0
05/12:30am SW 10 19 - - - - - - - 14.6 1004.2 1.0
05/12:00am SW 10 17 - - - - - - - 14.7 1004.0 1.0
 
Date/Time
EDT
Wind Sea
Height
m
Swell Vis
km
Cloud Weather Temp
°C
Press
MSL
hPa
Rain since
9am
mm
Dir  Spd
kts
Gust
kts
Height
m
Period
s
Dir
04/11:30pm WSW 10 19 - - - - - - - 14.9 1003.4 1.0
04/11:00pm SW 11 21 - - - - - - - 14.8 1003.0 1.0
04/10:30pm WSW 11 22 - - - - - - - 14.9 1003.0 1.0
04/10:00pm SW 13 22 - - - - - - - 15.0 1002.7 1.0
04/09:30pm WSW 10 18 - - - - - - - 15.0 1002.3 1.0
04/09:00pm SW 10 18 - - - - - - - 14.9 1001.9 1.0
04/08:30pm SW 9 13 - - - - - - - 14.9 1001.4 1.0
04/08:00pm SW 11 18 - - - - - - - 15.0 1000.8 1.0
04/07:30pm SW 12 20 - - - - - - - 15.0 1000.3 1.0
04/07:00pm SW 12 20 - - - - - - - 14.8 999.7 1.0
04/06:30pm SSW 12 22 - - - - - - - 16.0 999.3 1.0
04/06:00pm SW 13 21 - - - - - - - 16.2 998.6 1.0
04/05:30pm SW 12 24 - - - - - - - 17.3 998.1 1.0
04/05:00pm SW 13 24 - - - - - - - 18.1 997.7 1.0
04/04:33pm SSW 15 27 - - - - - - - 18.4 997.1 1.0
04/04:30pm SSW 13 22 - - - - - - - 19.0 997.1 1.0
04/04:00pm SW 13 22 - - - - - - - 18.8 996.8 1.0
04/03:48pm SSW 15 28 - - - - - - - 18.8 996.7 1.0
04/03:30pm SSW 13 22 - - - - - - - 18.3 996.6 1.0
04/03:00pm S 12 21 - - - - - - - 15.7 996.6 1.0
04/02:30pm SSW 10 16 - - - - - - - 18.2 996.2 1.0
04/02:00pm SW 11 20 - - - - - - - 17.4 996.1 1.0
04/01:30pm SW 6 14 - - - - - - - 16.9 996.1 1.0
04/01:00pm SW 7 13 - - - - - - - 15.8 996.0 1.0
04/12:30pm WSW 8 13 - - - - - - - 16.1 995.8 0.4
04/12:00pm E 5 8 - - - - - - Recent precip. 16.2 995.5 0.2
04/11:30am NE 4 6 - - - - - - - 15.7 995.4 0.2
04/11:00am N 4 6 - - - - - - - 15.8 995.3 0.0
04/10:30am NNW 8 12 - - - - - - - 15.4 995.0 0.0
04/10:00am NNW 8 14 - - - - - - - 14.3 994.9 0.0
04/09:30am N 5 7 - - - - - - - 14.1 994.9 0.0
04/09:00am NNW 5 9 - - - - - - Rain 12.8 994.8 6.8
04/08:30am NNW 7 11 - - - - - - - 12.3 994.7 6.2
04/08:00am NW 3 8 - - - - - - - 12.0 994.4 6.2
04/07:30am WNW 3 6 - - - - - - - 12.0 993.8 4.4
04/07:00am WNW 3 5 - - - - - - - 12.5 993.2 1.2

Other formats

Comma delimited format used in spreadsheet applications
http://www.bom.gov.au/fwo/IDT60701/IDT60701.94970.axf

JavaScript Object Notation format (JSON) in row-major order
http://www.bom.gov.au/fwo/IDT60701/IDT60701.94970.json

Data quality

Most of these data are generated automatically and are frequently updated. Quality checks on data are not normally performed. It is possible for incorrect values to appear. Refer to information at About Latest Weather Observations and please check the disclaimer before using these data.